Time;durP1;ratioP1;P1;durP2;ratioP2;P2;SDS_P1;SDS_P2;PMS_P1;PMS_P2;Temp;Humidity;BMP_temperature;BMP_pressure;BME280_temperature;BME280_humidity;BME280_pressure;Samples;Min_cycle;Max_cycle;Signal;HPM_P1;HPM_P2
2023/08/27 00:00:33;;;;;;;;;3.00;3.00;;;;;19.90;53.26;100644.06;5070723;27;46625;-64
2023/08/27 00:02:59;;;;;;;;;2.33;2.33;;;;;19.90;53.20;100625.47;5074066;27;45519;-63
2023/08/27 00:05:24;;;;;;;;;1.67;1.67;;;;;20.06;53.34;100639.03;5071396;27;45643;-63
2023/08/27 00:07:50;;;;;;;;;2.67;2.67;;;;;20.12;53.29;100638.78;5074611;27;45365;-63
2023/08/27 00:10:15;;;;;;;;;5.00;3.33;;;;;20.13;53.58;100633.41;5072611;27;46083;-63
2023/08/27 00:12:41;;;;;;;;;3.00;3.00;;;;;20.15;53.77;100637.81;5069376;27;45472;-63
2023/08/27 00:15:07;;;;;;;;;2.33;2.33;;;;;20.10;53.74;100614.06;5073219;27;45475;-65
2023/08/27 00:17:33;;;;;;;;;3.00;3.00;;;;;20.27;53.91;100624.03;5070989;27;45531;-66
2023/08/27 00:19:58;;;;;;;;;1.00;1.00;;;;;20.32;53.79;100622.91;5066804;27;45412;-68
2023/08/27 00:22:24;;;;;;;;;3.00;1.33;;;;;20.36;53.88;100620.13;5064378;27;45428;-67
2023/08/27 00:24:49;;;;;;;;;3.00;1.67;;;;;20.41;53.95;100636.78;5059767;28;45433;-62
2023/08/27 00:27:15;;;;;;;;;1.67;1.67;;;;;20.43;54.00;100632.25;5061555;27;45437;-66
2023/08/27 00:29:41;;;;;;;;;2.67;2.67;;;;;20.45;53.77;100639.22;5059130;28;46023;-62
2023/08/27 00:32:06;;;;;;;;;1.00;1.00;;;;;20.46;53.77;100624.16;5063687;27;45479;-64
2023/08/27 00:34:33;;;;;;;;;2.67;2.00;;;;;20.48;53.85;100625.81;5063364;27;45530;-65
2023/08/27 00:37:03;;;;;;;;;1.33;1.33;;;;;20.50;54.10;100628.41;5064498;27;45397;-65
2023/08/27 00:39:33;;;;;;;;;1.33;1.33;;;;;20.44;54.02;100613.56;5062830;27;46752;-63
2023/08/27 00:41:58;;;;;;;;;1.00;1.00;;;;;20.52;54.21;100622.13;5062467;28;45695;-62
2023/08/27 00:44:24;;;;;;;;;5.00;3.00;;;;;20.51;54.07;100628.34;5066745;27;45472;-64
2023/08/27 00:46:50;;;;;;;;;2.00;2.00;;;;;20.52;54.41;100630.09;5062865;27;45401;-64
2023/08/27 00:49:16;;;;;;;;;3.00;1.00;;;;;20.47;54.12;100617.91;5072880;27;45609;-66
2023/08/27 00:51:47;;;;;;;;;2.00;2.00;;;;;20.54;54.69;100627.34;5074779;27;45524;-66
2023/08/27 00:54:12;;;;;;;;;1.00;1.00;;;;;20.52;54.52;100634.53;5076084;27;45352;-65
2023/08/27 00:56:42;;;;;;;;;2.00;2.00;;;;;20.45;54.55;100622.41;5062904;27;45496;-66
2023/08/27 00:59:07;;;;;;;;;2.00;2.00;;;;;20.48;54.39;100633.81;5058110;28;45414;-65
2023/08/27 01:01:33;;;;;;;;;1.33;1.33;;;;;20.47;54.25;100641.84;5059565;28;45615;-63
2023/08/27 01:04:00;;;;;;;;;1.00;1.00;;;;;20.46;54.05;100635.66;5059679;27;45390;-64
2023/08/27 01:06:25;;;;;;;;;2.67;2.00;;;;;20.43;53.85;100630.47;5061282;27;45494;-67
2023/08/27 01:09:26;;;;;;;;;2.33;1.00;;;;;20.45;53.41;100635.72;5065285;27;46086;-67
2023/08/27 01:12:15;;;;;;;;;1.00;1.00;;;;;20.46;53.58;100635.66;5069167;27;45487;-65
2023/08/27 01:14:47;;;;;;;;;2.00;2.00;;;;;20.37;53.79;100627.19;5081155;28;45219;-64
2023/08/27 01:17:16;;;;;;;;;1.00;1.00;;;;;20.41;53.69;100634.13;5074409;28;45361;-64
2023/08/27 01:19:42;;;;;;;;;1.00;1.00;;;;;20.32;53.53;100614.94;5081622;27;45331;-64
2023/08/27 01:22:08;;;;;;;;;4.00;1.00;;;;;20.39;53.35;100638.63;5080274;28;45439;-64
2023/08/27 01:24:34;;;;;;;;;1.00;1.00;;;;;20.36;53.28;100630.75;5080481;27;45517;-63
2023/08/27 01:27:09;;;;;;;;;1.00;1.00;;;;;20.32;53.30;100641.53;5076950;28;45574;-64
2023/08/27 01:29:42;;;;;;;;;1.00;1.00;;;;;20.30;53.40;100635.41;5078511;28;45499;-63
2023/08/27 01:32:21;;;;;;;;;1.33;1.33;;;;;20.26;53.51;100627.59;5079661;27;45252;-63
2023/08/27 01:34:47;;;;;;;;;0.00;0.00;;;;;20.23;53.45;100622.41;5079875;28;45479;-64
2023/08/27 01:37:13;;;;;;;;;1.33;1.33;;;;;20.25;53.85;100621.44;5079686;27;45425;-63
2023/08/27 01:39:42;;;;;;;;;2.00;1.00;;;;;20.16;54.01;100618.28;5079594;27;45841;-62
2023/08/27 01:42:08;;;;;;;;;0.00;0.00;;;;;20.09;53.91;100614.97;5079755;28;45313;-64
2023/08/27 01:44:33;;;;;;;;;0.33;0.33;;;;;20.05;54.25;100629.31;5079582;27;45409;-63
2023/08/27 01:47:00;;;;;;;;;1.00;1.00;;;;;20.07;53.78;100624.81;5079649;27;45488;-63
2023/08/27 01:49:25;;;;;;;;;0.00;0.00;;;;;20.09;53.60;100625.63;5080303;27;46493;-63
2023/08/27 01:51:51;;;;;;;;;1.00;1.00;;;;;20.01;53.68;100606.47;5081087;28;45439;-63
2023/08/27 01:54:17;;;;;;;;;0.00;0.00;;;;;20.05;54.06;100624.88;5079604;27;45544;-63
2023/08/27 01:56:43;;;;;;;;;0.33;0.33;;;;;20.03;54.14;100621.41;5079548;27;45512;-64
2023/08/27 01:59:08;;;;;;;;;0.00;0.00;;;;;19.98;54.25;100619.84;5079431;27;45957;-63
2023/08/27 02:01:34;;;;;;;;;1.00;1.00;;;;;19.94;54.83;100619.13;5079576;27;45335;-65
2023/08/27 02:04:00;;;;;;;;;1.00;0.33;;;;;19.85;54.82;100622.13;5079947;28;45456;-63
2023/08/27 02:06:25;;;;;;;;;1.00;1.00;;;;;19.82;55.03;100623.09;5078717;27;45326;-63
2023/08/27 02:08:51;;;;;;;;;1.00;1.00;;;;;19.83;55.32;100623.97;5078972;27;45431;-63
2023/08/27 02:11:17;;;;;;;;;1.00;1.00;;;;;19.85;54.65;100616.81;5040975;28;45489;-62
2023/08/27 02:13:42;;;;;;;;;2.00;1.00;;;;;19.82;55.00;100611.63;5059996;28;45517;-64
2023/08/27 02:16:08;;;;;;;;;0.67;0.67;;;;;19.80;54.70;100609.00;5058876;28;45482;-64
2023/08/27 02:18:34;;;;;;;;;0.00;0.00;;;;;19.85;54.97;100612.34;5058024;28;46536;-64
2023/08/27 02:21:01;;;;;;;;;1.67;0.33;;;;;19.84;54.73;100623.06;5040327;28;45642;-65
2023/08/27 02:23:47;;;;;;;;;1.00;0.67;;;;;19.78;54.91;100625.94;5059125;28;45509;-63
2023/08/27 02:26:20;;;;;;;;;0.33;0.00;;;;;19.70;54.86;100624.44;5041822;28;45588;-63
2023/08/27 02:28:48;;;;;;;;;1.00;1.00;;;;;19.74;55.05;100630.50;5040779;28;46350;-64
2023/08/27 02:31:30;;;;;;;;;0.00;0.00;;;;;19.73;54.89;100618.13;5059341;28;45425;-64
2023/08/27 02:34:17;;;;;;;;;0.67;0.67;;;;;19.35;55.16;100564.63;5060354;28;45590;-66
2023/08/27 02:36:44;;;;;;;;;2.00;1.00;;;;;19.30;54.80;100555.97;5059230;28;45466;-65
2023/08/27 02:39:28;;;;;;;;;1.00;1.00;;;;;19.69;55.19;100625.38;5058633;28;45650;-64
2023/08/27 02:42:18;;;;;;;;;0.67;0.67;;;;;19.69;54.92;100617.41;5059343;28;45577;-65
2023/08/27 02:45:09;;;;;;;;;1.67;1.00;;;;;19.68;54.94;100612.13;5058995;28;45345;-67
2023/08/27 02:48:04;;;;;;;;;0.33;0.33;;;;;19.65;55.03;100621.06;5058122;28;45443;-66
2023/08/27 02:50:47;;;;;;;;;3.00;1.00;;;;;19.63;55.33;100630.88;5039765;28;45520;-65
2023/08/27 02:53:26;;;;;;;;;2.00;0.00;;;;;19.58;55.22;100622.22;5057919;28;45540;-64
2023/08/27 02:55:53;;;;;;;;;2.00;0.67;;;;;19.58;55.66;100630.19;5028405;28;45475;-64
2023/08/27 02:58:18;;;;;;;;;1.00;1.00;;;;;19.56;55.44;100621.41;5058251;28;45457;-64
2023/08/27 03:00:44;;;;;;;;;0.33;0.33;;;;;19.55;55.34;100621.44;5058059;28;46326;-63
2023/08/27 03:03:09;;;;;;;;;1.00;1.00;;;;;19.55;55.63;100624.09;5057332;28;45356;-62
2023/08/27 03:05:35;;;;;;;;;1.00;1.00;;;;;19.52;55.47;100621.56;5057572;28;45469;-63
2023/08/27 03:08:01;;;;;;;;;0.00;0.00;;;;;19.52;55.42;100619.78;5058516;28;45272;-63
2023/08/27 03:10:26;;;;;;;;;0.00;0.00;;;;;19.54;55.55;100625.91;5071134;27;46350;-65
2023/08/27 03:12:52;;;;;;;;;1.00;1.00;;;;;19.47;55.41;100611.97;5078314;27;45470;-63
2023/08/27 03:15:17;;;;;;;;;1.67;0.67;;;;;19.40;55.26;100605.16;5078124;27;45375;-63
2023/08/27 03:17:43;;;;;;;;;1.00;1.00;;;;;19.49;55.57;100619.91;5076559;27;45303;-63
2023/08/27 03:20:09;;;;;;;;;0.67;0.67;;;;;19.38;55.07;100601.69;5077980;27;45461;-63
2023/08/27 03:22:35;;;;;;;;;1.00;1.00;;;;;19.43;55.53;100621.00;5076644;28;45375;-62
2023/08/27 03:25:01;;;;;;;;;1.00;1.00;;;;;19.36;55.34;100606.22;5078357;27;45369;-64
2023/08/27 03:27:32;;;;;;;;;1.00;1.00;;;;;19.47;55.42;100627.03;5078657;27;45355;-63
2023/08/27 03:29:58;;;;;;;;;0.00;0.00;;;;;19.48;55.22;100626.09;5078698;27;46676;-63
2023/08/27 03:32:24;;;;;;;;;1.33;1.33;;;;;19.50;55.07;100637.53;5078602;28;45401;-63
2023/08/27 03:34:49;;;;;;;;;1.00;1.00;;;;;19.46;55.02;100642.13;5079602;27;45424;-63
2023/08/27 03:37:15;;;;;;;;;1.00;1.00;;;;;19.46;55.04;100647.44;5076606;28;45452;-63
2023/08/27 03:39:40;;;;;;;;;1.00;1.00;;;;;19.46;55.33;100642.13;5078434;28;46189;-63
2023/08/27 03:42:06;;;;;;;;;2.00;0.00;;;;;19.45;55.41;100640.38;5078244;28;45381;-64
2023/08/27 03:44:31;;;;;;;;;1.00;1.00;;;;;19.46;55.22;100647.44;5078048;27;45470;-64
2023/08/27 03:46:57;;;;;;;;;1.00;1.00;;;;;19.45;55.04;100637.72;5077365;27;45533;-62
2023/08/27 03:49:23;;;;;;;;;0.00;0.00;;;;;19.38;55.18;100638.00;5077126;28;46218;-65
2023/08/27 03:51:48;;;;;;;;;3.00;1.00;;;;;19.41;55.59;100643.19;5077000;28;45399;-63
2023/08/27 03:54:14;;;;;;;;;2.67;1.00;;;;;19.40;55.50;100646.78;5075517;28;45393;-64
2023/08/27 03:56:39;;;;;;;;;2.33;0.33;;;;;19.38;55.46;100657.44;5077448;27;45523;-63
2023/08/27 03:59:05;;;;;;;;;2.00;0.33;;;;;19.37;55.48;100655.72;5078287;28;46134;-63
2023/08/27 04:01:30;;;;;;;;;1.00;1.00;;;;;19.34;55.47;100655.84;5076514;27;45275;-62
2023/08/27 04:03:56;;;;;;;;;1.67;0.67;;;;;19.33;55.39;100647.94;5077360;28;45374;-64
2023/08/27 04:06:29;;;;;;;;;1.33;1.00;;;;;19.30;55.53;100651.56;5077745;27;45442;-61
2023/08/27 04:08:54;;;;;;;;;2.00;1.00;;;;;19.28;55.39;100650.75;5075651;27;46265;-64
2023/08/27 04:11:20;;;;;;;;;0.33;0.33;;;;;19.24;55.45;100652.66;5077253;27;45354;-63
2023/08/27 04:13:45;;;;;;;;;3.50;1.00;;;;;19.21;55.77;100662.50;5077268;27;45417;-63
2023/08/27 04:16:11;;;;;;;;;1.00;1.00;;;;;19.18;55.76;100660.81;5077489;27;45440;-63
2023/08/27 04:18:57;;;;;;;;;2.00;1.00;;;;;19.14;55.82;100666.28;5076979;27;46524;-62
2023/08/27 04:21:23;;;;;;;;;1.33;1.00;;;;;19.11;56.07;100661.97;5075117;28;45606;-63
2023/08/27 04:23:49;;;;;;;;;1.00;1.00;;;;;19.10;56.07;100657.59;5077712;27;45444;-62
2023/08/27 04:26:14;;;;;;;;;1.67;1.00;;;;;19.05;56.01;100656.84;5077835;28;45612;-64
2023/08/27 04:28:40;;;;;;;;;1.00;1.00;;;;;19.02;55.97;100649.84;5076640;27;45652;-64
2023/08/27 04:31:05;;;;;;;;;0.67;0.67;;;;;19.09;56.02;100673.56;5076627;27;45416;-63
2023/08/27 04:33:31;;;;;;;;;4.33;1.00;;;;;19.13;56.06;100675.19;5077005;27;45347;-63
2023/08/27 04:35:57;;;;;;;;;0.00;0.00;;;;;19.14;55.83;100676.91;5076998;27;45461;-65
2023/08/27 04:38:22;;;;;;;;;0.67;0.67;;;;;19.13;55.86;100662.78;5077133;27;46149;-65
2023/08/27 04:40:54;;;;;;;;;0.33;0.00;;;;;19.15;55.80;100668.91;5076866;27;45402;-63
2023/08/27 04:43:20;;;;;;;;;1.00;1.00;;;;;19.10;55.71;100662.88;5077050;27;45402;-65
2023/08/27 04:45:45;;;;;;;;;1.00;1.00;;;;;19.05;55.74;100673.66;5076964;27;45334;-63
2023/08/27 04:48:11;;;;;;;;;1.00;1.00;;;;;19.03;55.98;100678.16;5077297;28;45512;-63
2023/08/27 04:50:38;;;;;;;;;1.00;1.00;;;;;19.07;55.99;100686.88;5077553;27;45508;-62
2023/08/27 04:53:03;;;;;;;;;0.67;0.00;;;;;18.81;56.02;100642.63;5076681;27;45645;-63
2023/08/27 04:55:29;;;;;;;;;2.00;0.33;;;;;18.98;56.09;100674.78;5078141;27;45310;-65
2023/08/27 04:57:55;;;;;;;;;0.00;0.00;;;;;19.02;56.22;100688.81;5076530;27;46153;-63
2023/08/27 05:00:21;;;;;;;;;1.00;1.00;;;;;19.02;56.08;100688.81;5076857;27;45475;-65
2023/08/27 05:02:47;;;;;;;;;1.00;1.00;;;;;19.01;56.00;100693.25;5076744;27;47623;-63
2023/08/27 05:05:19;;;;;;;;;3.00;1.00;;;;;18.86;56.30;100669.88;5076342;27;45474;-63
2023/08/27 05:07:45;;;;;;;;;2.00;1.00;;;;;18.95;56.11;100687.28;5075142;27;47661;-62
2023/08/27 05:10:10;;;;;;;;;2.00;1.67;;;;;18.97;56.41;100691.63;5076209;27;45589;-62
2023/08/27 05:12:36;;;;;;;;;2.00;1.00;;;;;18.97;56.32;100686.31;5077657;27;45619;-61
2023/08/27 05:15:03;;;;;;;;;2.33;0.67;;;;;18.90;56.29;100679.47;5089606;27;45370;-63
2023/08/27 05:17:29;;;;;;;;;2.67;1.67;;;;;19.01;56.39;100692.41;5075694;27;45960;-64
2023/08/27 05:19:55;;;;;;;;;1.00;1.00;;;;;19.00;56.52;100696.81;5076082;27;45507;-61
2023/08/27 05:22:20;;;;;;;;;1.00;1.00;;;;;19.04;56.42;100693.16;5080933;27;45516;-63
2023/08/27 05:24:46;;;;;;;;;1.00;0.67;;;;;19.01;56.29;100693.25;5093747;27;45470;-63
2023/08/27 05:27:11;;;;;;;;;0.00;0.00;;;;;18.99;56.20;100686.28;5080031;27;46331;-62
2023/08/27 05:29:37;;;;;;;;;0.00;0.00;;;;;18.98;56.31;100690.72;5077439;27;46140;-62
2023/08/27 05:32:04;;;;;;;;;2.00;0.00;;;;;19.02;56.25;100692.31;5077048;27;45441;-62
2023/08/27 05:34:29;;;;;;;;;4.67;1.00;;;;;19.07;56.45;100706.31;5074909;28;45494;-63
2023/08/27 05:36:55;;;;;;;;;1.00;1.00;;;;;18.88;56.01;100670.69;5076244;28;45539;-62
2023/08/27 05:39:20;;;;;;;;;1.00;1.00;;;;;19.03;56.08;100691.44;5079048;27;45331;-61
2023/08/27 05:41:46;;;;;;;;;1.67;1.00;;;;;19.07;55.89;100702.78;5085235;27;45311;-62
2023/08/27 05:44:12;;;;;;;;;1.33;0.33;;;;;19.05;56.05;100704.63;5076763;27;45541;-63
2023/08/27 05:46:37;;;;;;;;;1.00;1.00;;;;;19.04;56.16;100701.09;5075569;27;45447;-64
2023/08/27 05:49:03;;;;;;;;;3.33;1.33;;;;;19.10;56.00;100708.03;5076812;27;45504;-63
2023/08/27 05:51:28;;;;;;;;;3.00;1.33;;;;;19.15;55.88;100710.50;5088456;27;45542;-63
2023/08/27 05:53:55;;;;;;;;;3.00;1.00;;;;;19.17;55.91;100704.25;5088600;27;45458;-64
2023/08/27 05:56:21;;;;;;;;;2.00;1.00;;;;;19.16;55.61;100698.97;5086160;27;46203;-63
2023/08/27 05:58:46;;;;;;;;;1.00;1.00;;;;;19.26;55.59;100713.66;5078164;28;45554;-62
2023/08/27 06:01:12;;;;;;;;;2.00;2.00;;;;;19.30;55.34;100725.06;5084429;27;45579;-62
2023/08/27 06:03:37;;;;;;;;;2.00;2.00;;;;;19.28;55.46;100702.06;5091350;27;45491;-62
2023/08/27 06:06:03;;;;;;;;;1.33;1.33;;;;;19.36;55.09;100707.13;5079009;28;46250;-62
2023/08/27 06:08:29;;;;;;;;;1.33;1.00;;;;;19.46;54.74;100724.47;5077779;28;45668;-63
2023/08/27 06:10:54;;;;;;;;;4.00;1.33;;;;;19.52;54.64;100712.75;5079205;27;45325;-63
2023/08/27 06:13:20;;;;;;;;;2.00;1.33;;;;;19.55;54.67;100709.09;5079236;27;45583;-62
2023/08/27 06:15:46;;;;;;;;;4.00;1.67;;;;;19.64;54.58;100711.44;5078578;27;45918;-63
2023/08/27 06:18:11;;;;;;;;;2.00;2.00;;;;;19.66;54.28;100712.25;5077380;27;45863;-63
2023/08/27 06:20:38;;;;;;;;;2.00;2.00;;;;;19.67;54.42;100716.63;5078804;28;45353;-63
2023/08/27 06:23:06;;;;;;;;;2.67;2.67;;;;;19.72;54.52;100720.06;5078981;27;45503;-61
2023/08/27 06:25:35;;;;;;;;;6.00;2.00;;;;;19.77;54.28;100720.75;5079317;27;45465;-61
2023/08/27 06:28:04;;;;;;;;;6.00;2.00;;;;;19.84;54.13;100721.41;5078563;28;45430;-62
2023/08/27 06:30:30;;;;;;;;;1.00;1.00;;;;;19.89;54.33;100722.94;5078334;27;45529;-62
2023/08/27 06:32:56;;;;;;;;;1.67;0.67;;;;;19.93;54.01;100729.00;5078776;27;45734;-63
2023/08/27 06:35:23;;;;;;;;;1.00;1.00;;;;;19.88;53.90;100723.88;5078601;27;45414;-63
2023/08/27 06:37:48;;;;;;;;;1.67;1.67;;;;;19.83;54.03;100720.50;5077854;27;45625;-65
2023/08/27 06:40:14;;;;;;;;;2.33;1.00;;;;;19.95;53.51;100724.50;5078738;27;45580;-64
2023/08/27 06:42:41;;;;;;;;;3.67;0.33;;;;;20.06;53.60;100724.13;5078722;27;45444;-63
2023/08/27 06:45:07;;;;;;;;;1.33;1.33;;;;;20.10;53.43;100742.56;5078359;27;46697;-61
2023/08/27 06:47:33;;;;;;;;;1.33;1.33;;;;;20.10;53.14;100733.72;5078252;27;45586;-61
2023/08/27 06:49:59;;;;;;;;;1.67;1.00;;;;;20.10;53.19;100731.91;5078507;27;45487;-63
2023/08/27 06:52:24;;;;;;;;;1.33;1.00;;;;;20.11;52.99;100725.66;5079382;28;45447;-65
2023/08/27 06:54:50;;;;;;;;;1.00;1.00;;;;;20.20;52.76;100731.56;5079312;28;45601;-65
2023/08/27 06:57:15;;;;;;;;;1.33;0.00;;;;;20.15;52.57;100712.28;5078434;28;46006;-65
2023/08/27 06:59:41;;;;;;;;;1.00;1.00;;;;;20.18;52.58;100717.47;5077157;28;45350;-63
2023/08/27 07:02:06;;;;;;;;;2.00;2.00;;;;;20.40;52.54;100749.41;5077660;27;45495;-64
2023/08/27 07:04:32;;;;;;;;;1.00;1.00;;;;;20.45;52.58;100744.78;5077173;28;45413;-65
2023/08/27 07:06:58;;;;;;;;;2.67;2.67;;;;;20.44;52.54;100740.41;5078106;27;45345;-66
2023/08/27 07:09:23;;;;;;;;;6.67;3.00;;;;;20.49;52.62;100743.75;5078337;27;45360;-65
2023/08/27 07:11:49;;;;;;;;;3.33;3.00;;;;;20.49;52.16;100738.44;5077948;27;45584;-65
2023/08/27 07:14:15;;;;;;;;;3.00;2.00;;;;;20.61;51.73;100750.41;5076246;28;47019;-67
2023/08/27 07:16:40;;;;;;;;;2.33;2.33;;;;;20.71;52.71;100757.09;5077184;27;45859;-67
2023/08/27 07:19:06;;;;;;;;;2.33;2.00;;;;;20.81;53.20;100749.59;5078294;27;45278;-66
2023/08/27 07:21:33;;;;;;;;;2.00;1.00;;;;;20.96;52.00;100741.00;5078358;27;45463;-66
2023/08/27 07:23:59;;;;;;;;;2.00;1.67;;;;;21.25;51.78;100762.91;5076274;28;47532;-66
2023/08/27 07:26:25;;;;;;;;;1.00;1.00;;;;;21.35;51.60;100770.44;5077590;27;45530;-65
2023/08/27 07:28:51;;;;;;;;;1.00;1.00;;;;;21.37;51.82;100757.06;5077391;28;45533;-65
2023/08/27 07:31:16;;;;;;;;;1.00;1.00;;;;;21.52;51.14;100753.78;5077709;27;45666;-66
2023/08/27 07:33:42;;;;;;;;;2.00;2.00;;;;;21.59;51.15;100759.69;5090310;27;47950;-64
2023/08/27 07:36:07;;;;;;;;;3.00;2.00;;;;;21.73;50.19;100756.41;5075937;28;45446;-65
2023/08/27 07:38:40;;;;;;;;;3.33;3.33;;;;;21.69;50.76;100738.81;5074739;27;45458;-64
2023/08/27 07:41:06;;;;;;;;;1.67;1.67;;;;;21.85;50.56;100763.88;5071192;27;45685;-65
2023/08/27 07:43:31;;;;;;;;;3.00;1.00;;;;;21.93;50.73;100752.88;5073619;27;46050;-64
2023/08/27 07:45:57;;;;;;;;;0.00;0.00;;;;;21.96;49.84;100744.75;5066978;28;45444;-64
2023/08/27 07:48:23;;;;;;;;;2.33;2.00;;;;;22.11;50.16;100761.84;5067385;27;45381;-64
2023/08/27 07:50:48;;;;;;;;;0.67;0.00;;;;;22.20;49.62;100745.41;5069976;27;45341;-63
2023/08/27 07:53:14;;;;;;;;;1.00;1.00;;;;;22.23;49.16;100742.63;5067775;28;45629;-64
2023/08/27 07:55:39;;;;;;;;;1.00;1.00;;;;;22.29;48.59;100754.84;5071306;28;45604;-62
2023/08/27 07:58:05;;;;;;;;;3.00;1.67;;;;;22.31;48.62;100747.63;5081617;27;45666;-63
2023/08/27 08:00:30;;;;;;;;;1.33;1.00;;;;;22.35;48.40;100752.75;5070504;27;45425;-63
2023/08/27 08:02:56;;;;;;;;;1.00;1.00;;;;;22.31;48.58;100744.97;5063552;27;45566;-65
2023/08/27 08:05:28;;;;;;;;;1.00;0.00;;;;;22.13;48.28;100723.47;5064560;28;45794;-62
2023/08/27 08:07:54;;;;;;;;;1.00;1.00;;;;;22.29;48.65;100758.38;5067500;27;45442;-66
2023/08/27 08:10:23;;;;;;;;;1.33;1.33;;;;;22.30;48.43;100752.06;5063888;27;45495;-66
2023/08/27 08:12:52;;;;;;;;;2.33;2.33;;;;;22.30;48.32;100741.41;5069081;27;45388;-62
2023/08/27 08:15:17;;;;;;;;;1.00;1.00;;;;;22.29;48.37;100750.34;5062026;27;45584;-64
2023/08/27 08:17:44;;;;;;;;;0.67;0.67;;;;;22.34;48.25;100744.81;5068838;27;45333;-64
2023/08/27 08:20:10;;;;;;;;;1.00;1.00;;;;;22.38;47.85;100749.94;5101696;27;45310;-63
2023/08/27 08:22:43;;;;;;;;;1.00;1.00;;;;;22.29;48.24;100723.69;5076891;27;46177;-63
2023/08/27 08:25:08;;;;;;;;;4.00;1.00;;;;;22.40;47.99;100739.16;5075507;28;45449;-65
2023/08/27 08:27:34;;;;;;;;;2.00;1.00;;;;;22.37;47.75;100734.84;5076719;27;45327;-64
2023/08/27 08:30:01;;;;;;;;;3.00;2.00;;;;;22.35;47.67;100736.75;5075771;27;45682;-63
2023/08/27 08:32:27;;;;;;;;;3.00;3.00;;;;;22.41;47.61;100736.44;5078017;27;46580;-62
2023/08/27 08:34:54;;;;;;;;;3.33;1.67;;;;;22.38;46.88;100711.72;5078183;27;45472;-64
2023/08/27 08:37:19;;;;;;;;;2.67;1.00;;;;;22.56;47.25;100729.50;5077555;27;45334;-66
2023/08/27 08:39:45;;;;;;;;;1.00;1.00;;;;;22.51;46.74;100718.19;5077089;27;45421;-65
2023/08/27 08:42:14;;;;;;;;;2.00;2.00;;;;;22.63;46.56;100732.75;5076682;27;45452;-68
2023/08/27 08:45:00;;;;;;;;;3.33;2.00;;;;;22.64;46.44;100731.81;5077162;28;45361;-66
2023/08/27 08:47:28;;;;;;;;;1.00;1.00;;;;;22.70;45.94;100738.66;5077038;27;45401;-63
2023/08/27 08:49:57;;;;;;;;;1.67;1.00;;;;;22.62;46.31;100718.53;5077123;27;45479;-64
2023/08/27 08:52:27;;;;;;;;;0.00;0.00;;;;;22.75;45.72;100729.47;5078153;27;45175;-65
2023/08/27 08:54:55;;;;;;;;;2.00;1.00;;;;;22.85;45.68;100728.09;5078611;27;45419;-62
2023/08/27 08:57:30;;;;;;;;;1.00;1.00;;;;;22.86;45.65;100726.28;5075695;27;45358;-64
2023/08/27 08:59:56;;;;;;;;;1.33;0.67;;;;;22.95;45.60;100731.19;5077298;27;45699;-65
2023/08/27 09:02:22;;;;;;;;;1.00;1.00;;;;;22.98;45.18;100730.16;5076524;27;45551;-66
2023/08/27 09:04:48;;;;;;;;;1.00;1.00;;;;;22.99;45.15;100738.13;5077456;27;45337;-64
2023/08/27 09:07:15;;;;;;;;;2.00;0.00;;;;;22.88;44.92;100710.19;5077773;27;46073;-67
2023/08/27 09:09:42;;;;;;;;;0.00;0.00;;;;;22.99;44.93;100723.88;5076709;27;45424;-65
2023/08/27 09:12:08;;;;;;;;;3.00;0.67;;;;;23.05;44.61;100731.63;5076434;27;46193;-68
2023/08/27 09:14:35;;;;;;;;;3.00;1.00;;;;;23.10;44.51;100739.41;5076093;27;45511;-66
2023/08/27 09:17:01;;;;;;;;;2.00;2.00;;;;;23.06;44.83;100720.88;5076623;27;45365;-65
2023/08/27 09:19:26;;;;;;;;;3.00;1.00;;;;;23.24;46.33;100739.56;5077306;27;45312;-68
2023/08/27 09:21:52;;;;;;;;;1.00;1.00;;;;;23.25;46.02;100744.84;5076832;27;46138;-65
2023/08/27 09:24:17;;;;;;;;;1.67;1.67;;;;;23.19;46.29;100745.13;5076413;27;46111;-65
2023/08/27 09:26:43;;;;;;;;;1.00;1.00;;;;;23.24;46.33;100752.94;5077886;27;45430;-67
2023/08/27 09:29:08;;;;;;;;;2.33;1.00;;;;;23.23;46.03;100752.06;5080248;27;45429;-67
2023/08/27 09:31:42;;;;;;;;;1.00;1.00;;;;;23.20;45.61;100741.50;5095828;27;45448;-66
2023/08/27 09:34:09;;;;;;;;;1.00;1.00;;;;;23.32;44.92;100760.53;5080525;28;45396;-63
2023/08/27 09:36:38;;;;;;;;;2.00;2.00;;;;;23.34;45.53;100762.19;5079951;27;45440;-64
2023/08/27 09:39:10;;;;;;;;;1.00;1.00;;;;;23.33;45.32;100756.94;5080275;27;45401;-64
2023/08/27 09:41:44;;;;;;;;;0.00;0.00;;;;;23.39;45.16;100760.16;5079482;27;45455;-64
2023/08/27 09:44:10;;;;;;;;;1.00;1.00;;;;;23.37;45.20;100762.06;5079489;27;45493;-64
2023/08/27 09:46:37;;;;;;;;;0.50;0.50;;;;;23.36;44.26;100738.06;5079765;27;45451;-64
2023/08/27 09:49:07;;;;;;;;;1.00;1.00;;;;;23.63;44.38;100766.06;5080231;27;45531;-63
2023/08/27 09:51:34;;;;;;;;;2.00;1.00;;;;;23.86;43.41;100761.34;5079637;27;45424;-64
2023/08/27 09:54:00;;;;;;;;;1.67;1.67;;;;;24.07;43.48;100756.66;5079789;27;45543;-64
2023/08/27 09:56:27;;;;;;;;;1.00;1.00;;;;;24.06;42.98;100766.50;5079602;27;45448;-63
2023/08/27 09:58:54;;;;;;;;;4.00;1.00;;;;;24.01;43.07;100759.66;5079377;28;45408;-66
2023/08/27 10:01:23;;;;;;;;;1.00;1.00;;;;;24.08;42.71;100758.38;5078055;27;47617;-66
2023/08/27 10:03:48;;;;;;;;;1.50;1.25;;;;;24.12;42.81;100755.44;5079307;27;45509;-62
2023/08/27 10:06:14;;;;;;;;;1.00;1.00;;;;;24.24;42.75;100759.28;5077992;27;45580;-64
2023/08/27 10:08:50;;;;;;;;;0.00;0.00;;;;;24.21;42.09;100750.56;5095395;27;45623;-64
2023/08/27 10:11:17;;;;;;;;;0.75;0.75;;;;;24.22;42.01;100742.44;5077947;27;46838;-63
2023/08/27 10:13:44;;;;;;;;;0.00;0.00;;;;;24.33;41.90;100766.78;5079334;27;45420;-61
2023/08/27 10:16:11;;;;;;;;;1.25;1.25;;;;;24.45;41.26;100767.94;5079397;27;45377;-62
2023/08/27 10:18:38;;;;;;;;;2.00;1.00;;;;;24.41;41.40;100771.72;5077708;27;45578;-64
2023/08/27 10:21:04;;;;;;;;;1.00;1.00;;;;;24.32;41.04;100775.78;5079441;28;45332;-63
2023/08/27 10:23:40;;;;;;;;;1.00;1.00;;;;;24.20;41.30;100783.59;5080528;27;45393;-63
2023/08/27 10:26:06;;;;;;;;;3.33;2.00;;;;;24.18;41.52;100780.13;5078860;27;45386;-64
2023/08/27 10:28:35;;;;;;;;;1.00;1.00;;;;;24.16;40.92;100772.22;5079721;27;45451;-63
2023/08/27 10:31:05;;;;;;;;;1.00;1.00;;;;;24.18;41.00;100770.31;5078704;28;46143;-66
2023/08/27 10:33:31;;;;;;;;;4.00;3.67;;;;;24.23;40.35;100778.97;5110931;27;45444;-65
2023/08/27 10:36:02;;;;;;;;;1.00;1.00;;;;;24.37;40.61;100785.34;5079796;27;45455;-65
2023/08/27 10:38:29;;;;;;;;;0.00;0.00;;;;;24.49;40.25;100787.41;5079989;27;45518;-62
2023/08/27 10:40:55;;;;;;;;;1.00;1.00;;;;;24.63;40.23;100776.81;5077243;27;46811;-66
2023/08/27 10:43:21;;;;;;;;;1.00;1.00;;;;;24.78;40.36;100774.19;5078983;27;45374;-64
2023/08/27 10:45:51;;;;;;;;;2.25;1.00;;;;;24.98;40.06;100777.44;5094671;27;46005;-63
2023/08/27 10:48:17;;;;;;;;;3.00;1.00;;;;;25.13;39.70;100778.41;5111546;27;45309;-67
2023/08/27 10:50:51;;;;;;;;;1.75;1.00;;;;;25.15;39.91;100781.84;5094505;27;47281;-65
2023/08/27 10:53:19;;;;;;;;;1.00;1.00;;;;;25.22;39.92;100782.38;5070673;27;45494;-67
2023/08/27 10:55:50;;;;;;;;;1.00;0.75;;;;;25.26;39.02;100783.94;5078620;27;45437;-64
2023/08/27 10:58:24;;;;;;;;;1.00;1.00;;;;;25.24;38.77;100775.09;5078223;27;45683;-64
2023/08/27 11:01:10;;;;;;;;;2.50;1.50;;;;;25.09;38.96;100770.63;5078341;27;45480;-64
2023/08/27 11:04:16;;;;;;;;;1.00;1.00;;;;;24.93;38.68;100778.66;5078293;27;45448;-64
2023/08/27 11:06:45;;;;;;;;;3.00;1.75;;;;;24.75;38.64;100778.78;5035661;28;45383;-64
2023/08/27 11:09:21;;;;;;;;;1.00;1.00;;;;;24.54;38.45;100772.81;5019177;28;45330;-64
2023/08/27 11:12:00;;;;;;;;;1.50;1.50;;;;;24.39;38.89;100760.22;5051161;27;47796;-63
2023/08/27 11:14:26;;;;;;;;;2.00;2.00;;;;;24.50;38.74;100767.72;5078763;27;45385;-63
2023/08/27 11:16:59;;;;;;;;;3.00;3.00;;;;;24.69;38.80;100764.88;5077905;27;45432;-63
2023/08/27 11:19:37;;;;;;;;;3.00;2.50;;;;;24.90;38.70;100755.59;5079471;27;45478;-63
2023/08/27 11:22:21;;;;;;;;;1.00;1.00;;;;;25.22;37.44;100749.34;5078010;27;45327;-64
2023/08/27 11:24:55;;;;;;;;;2.00;2.00;;;;;25.41;36.72;100751.78;5077171;27;45315;-64
2023/08/27 11:27:22;;;;;;;;;1.00;1.00;;;;;25.56;37.30;100751.75;5071823;27;45311;-65